createdAt,value
2018-03-17T00:01:55.727Z,4.00
2018-03-17T00:06:58.251Z,4.07
2018-03-17T00:12:01.628Z,4.80
2018-03-17T00:17:04.928Z,4.10
2018-03-17T00:22:08.338Z,4.40
2018-03-17T00:27:11.111Z,3.97
2018-03-17T00:32:13.704Z,4.30
2018-03-17T00:37:16.263Z,4.80
2018-03-17T00:42:18.814Z,4.27
2018-03-17T00:47:21.412Z,4.10
2018-03-17T00:52:25.256Z,4.10
2018-03-17T00:57:28.840Z,4.13
2018-03-17T01:02:31.373Z,4.70
2018-03-17T01:07:35.021Z,4.30
2018-03-17T01:12:37.632Z,3.80
2018-03-17T01:17:40.203Z,3.77
2018-03-17T01:22:43.576Z,3.30
2018-03-17T01:27:46.569Z,4.23
2018-03-17T01:32:49.079Z,3.90
2018-03-17T01:37:51.613Z,3.80
2018-03-17T01:42:54.138Z,3.70
2018-03-17T01:47:57.397Z,4.30
2018-03-17T01:53:00.138Z,5.30
2018-03-17T01:58:02.944Z,6.77
2018-03-17T02:03:07.022Z,5.80
2018-03-17T02:08:09.803Z,6.80
2018-03-17T02:13:12.317Z,5.70
2018-03-17T02:18:14.842Z,4.97
2018-03-17T02:23:17.384Z,5.37
2018-03-17T02:28:20.075Z,5.40
2018-03-17T02:33:23.296Z,6.83
2018-03-17T02:38:25.856Z,7.47
2018-03-17T02:43:28.524Z,5.00
2018-03-17T02:48:31.134Z,5.73
2018-03-17T02:53:34.578Z,6.00
2018-03-17T02:58:37.314Z,5.67
2018-03-17T03:03:39.927Z,5.63
2018-03-17T03:08:42.489Z,4.77
2018-03-17T03:13:45.060Z,5.60
2018-03-17T03:18:47.712Z,5.90
2018-03-17T03:23:50.284Z,6.10
2018-03-17T03:28:52.825Z,5.20
2018-03-17T03:33:55.455Z,5.20
2018-03-17T03:38:58.382Z,4.90
2018-03-17T03:44:01.036Z,5.13
2018-03-17T03:49:03.730Z,4.87
2018-03-17T03:54:06.513Z,5.43
2018-03-17T03:59:09.079Z,4.93
2018-03-17T04:04:11.678Z,4.53
2018-03-17T04:09:14.235Z,4.63
2018-03-17T04:14:18.303Z,4.10
2018-03-17T04:19:20.926Z,4.83
2018-03-17T04:24:25.003Z,5.37
2018-03-17T04:29:27.568Z,5.03
2018-03-17T04:34:30.134Z,4.47
2018-03-17T04:39:33.307Z,5.20
2018-03-17T04:44:37.651Z,5.00
2018-03-17T04:49:40.219Z,5.73
2018-03-17T04:54:42.799Z,4.13
2018-03-17T04:59:45.468Z,4.50
2018-03-17T05:04:48.883Z,4.43
2018-03-17T05:09:51.585Z,4.73
2018-03-17T05:14:54.886Z,4.40
2018-03-17T05:19:59.364Z,5.03
2018-03-17T05:25:02.274Z,4.53
2018-03-17T05:30:05.315Z,3.97
2018-03-17T05:35:07.891Z,4.10
2018-03-17T05:40:11.047Z,4.53
2018-03-17T05:45:14.099Z,5.93
2018-03-17T05:50:16.755Z,4.73
2018-03-17T05:55:19.293Z,5.03
2018-03-17T06:00:21.859Z,4.77
2018-03-17T06:05:25.189Z,5.50
2018-03-17T06:10:27.990Z,4.50
2018-03-17T06:15:30.531Z,4.30
2018-03-17T06:20:35.071Z,4.40
2018-03-17T06:25:37.625Z,4.70
2018-03-17T06:30:40.695Z,5.30
2018-03-17T06:35:43.287Z,5.37
2018-03-17T06:40:46.278Z,4.80
2018-03-17T06:45:48.828Z,4.60
2018-03-17T06:50:51.737Z,4.87
2018-03-17T06:55:54.324Z,4.80
2018-03-17T07:00:56.952Z,4.80
2018-03-17T07:06:00.264Z,4.73
2018-03-17T07:11:03.077Z,5.20
2018-03-17T07:16:05.775Z,6.10
2018-03-17T07:21:08.336Z,4.50
2018-03-17T07:26:10.908Z,5.43
2018-03-17T07:31:13.541Z,4.97
2018-03-17T07:36:16.076Z,4.63
2018-03-17T07:41:18.706Z,4.93
2018-03-17T07:46:22.201Z,5.63
2018-03-17T07:51:25.546Z,5.17
2018-03-17T07:56:28.162Z,5.07
2018-03-17T08:01:30.819Z,5.83
2018-03-17T08:06:34.074Z,4.70
2018-03-17T08:11:37.197Z,4.20
2018-03-17T08:16:39.731Z,4.60
2018-03-17T08:21:42.796Z,5.03
2018-03-17T08:26:46.094Z,5.00
2018-03-17T08:31:52.104Z,3.87
2018-03-17T08:36:54.628Z,4.40
2018-03-17T08:41:57.156Z,4.33
2018-03-17T08:47:00.635Z,4.30
2018-03-17T08:52:03.831Z,4.77
2018-03-17T08:57:06.506Z,4.27
2018-03-17T09:02:09.101Z,4.70
2018-03-17T09:07:11.864Z,4.40
2018-03-17T09:12:14.454Z,4.80
2018-03-17T09:17:17.302Z,4.00
2018-03-17T09:22:21.907Z,4.60
2018-03-17T09:27:24.463Z,4.70
2018-03-17T09:32:27.057Z,4.57
2018-03-17T09:37:29.830Z,4.70
2018-03-17T09:42:32.395Z,4.23
2018-03-17T09:47:35.759Z,4.27
2018-03-17T09:52:38.383Z,4.87
2018-03-17T09:57:41.099Z,4.70
2018-03-17T10:02:43.895Z,4.90
2018-03-17T10:07:47.244Z,4.37
2018-03-17T10:12:49.946Z,5.40
2018-03-17T10:17:53.399Z,4.60
2018-03-17T10:22:56.920Z,4.60
2018-03-17T10:27:59.472Z,6.87
2018-03-17T10:33:02.297Z,5.73
2018-03-17T10:38:04.887Z,4.73
2018-03-17T10:43:07.549Z,5.60
2018-03-17T10:48:10.943Z,5.60
2018-03-17T10:53:14.907Z,5.17
2018-03-17T10:58:17.894Z,4.37
2018-03-17T11:03:20.775Z,5.07
2018-03-17T11:08:24.394Z,5.17
2018-03-17T11:13:27.570Z,5.63
2018-03-17T11:18:30.480Z,4.47
2018-03-17T11:23:33.354Z,5.47
2018-03-17T11:28:37.200Z,5.40
2018-03-17T11:33:39.982Z,5.37
2018-03-17T11:38:43.619Z,4.33
2018-03-17T11:43:46.222Z,5.47
2018-03-17T11:48:48.946Z,4.67
2018-03-17T11:53:51.544Z,4.20
2018-03-17T11:58:55.251Z,4.70
2018-03-17T12:04:00.722Z,4.77
2018-03-17T12:09:03.472Z,4.70
2018-03-17T12:14:06.836Z,4.13
2018-03-17T12:19:09.816Z,4.53
2018-03-17T12:24:12.635Z,4.20
2018-03-17T12:29:16.208Z,4.47
2018-03-17T12:34:19.574Z,4.43
2018-03-17T12:39:22.409Z,4.33
2018-03-17T12:44:25.395Z,3.60
2018-03-17T12:49:29.159Z,4.90
2018-03-17T12:54:31.985Z,6.40
2018-03-17T12:59:35.633Z,5.70
2018-03-17T13:04:38.293Z,5.80
2018-03-17T13:09:40.828Z,8.23
2018-03-17T13:14:43.508Z,7.43
2018-03-17T13:19:46.432Z,7.20
2018-03-17T13:24:49.121Z,7.40
2018-03-17T13:29:51.737Z,8.17
2018-03-17T13:34:55.049Z,6.97
2018-03-17T13:39:57.854Z,7.63
2018-03-17T13:45:01.629Z,6.60
2018-03-17T13:50:05.040Z,5.90
2018-03-17T13:55:07.612Z,7.43
2018-03-17T14:00:10.195Z,6.90
2018-03-17T14:05:12.755Z,6.53
2018-03-17T14:10:15.521Z,6.67
2018-03-17T14:15:18.805Z,5.60
2018-03-17T14:20:21.398Z,5.60
2018-03-17T14:25:24.538Z,6.67
2018-03-17T14:30:27.068Z,6.40
2018-03-17T14:35:30.276Z,5.20
2018-03-17T14:40:32.811Z,6.10
2018-03-17T14:45:35.359Z,5.07
2018-03-17T14:50:37.951Z,5.80
2018-03-17T14:55:41.295Z,5.67
2018-03-17T15:00:43.883Z,5.20
2018-03-17T15:05:47.126Z,6.47
2018-03-17T15:10:49.883Z,5.37
2018-03-17T15:15:52.417Z,5.70
2018-03-17T15:20:55.737Z,5.33
2018-03-17T15:25:58.340Z,4.97
2018-03-17T15:31:01.980Z,4.90
2018-03-17T15:36:04.533Z,4.60
2018-03-17T15:41:07.664Z,5.00
2018-03-17T15:46:10.260Z,5.50
2018-03-17T15:51:13.701Z,4.83
2018-03-17T15:56:16.207Z,5.00
2018-03-17T16:01:18.860Z,4.57
2018-03-17T16:06:21.366Z,4.23
2018-03-17T16:11:26.340Z,4.17
2018-03-17T16:16:28.892Z,3.90
2018-03-17T16:21:31.421Z,4.03
2018-03-17T16:26:34.597Z,4.17
2018-03-17T16:31:37.129Z,3.73
2018-03-17T16:36:40.255Z,4.97
2018-03-17T16:41:43.616Z,3.60
2018-03-17T16:46:47.233Z,3.77
2018-03-17T16:51:50.699Z,5.20
2018-03-17T16:56:53.361Z,4.10
2018-03-17T17:01:55.974Z,4.00
2018-03-17T17:06:59.780Z,3.70
2018-03-17T17:12:02.361Z,4.00
2018-03-17T17:17:05.785Z,4.37
2018-03-17T17:22:08.384Z,3.70
2018-03-17T17:27:11.072Z,3.50
2018-03-17T17:32:13.612Z,4.10
2018-03-17T17:37:16.183Z,3.97
2018-03-17T17:42:19.800Z,3.83
2018-03-17T17:47:23.197Z,3.90
2018-03-17T17:52:25.791Z,4.00
2018-03-17T17:57:29.163Z,3.90
2018-03-17T18:02:31.740Z,4.20
2018-03-17T18:07:34.357Z,4.33
2018-03-17T18:12:36.991Z,4.27
2018-03-17T18:17:39.890Z,4.50
2018-03-17T18:22:43.264Z,4.40
2018-03-17T18:27:46.075Z,3.73
2018-03-17T18:32:48.797Z,4.30
2018-03-17T18:37:51.517Z,4.70
2018-03-17T18:42:54.155Z,4.40
2018-03-17T18:47:56.807Z,4.60
2018-03-17T18:52:59.474Z,4.40
2018-03-17T18:58:02.104Z,5.10
2018-03-17T19:03:04.825Z,4.80
2018-03-17T19:08:08.032Z,4.80
2018-03-17T19:13:10.787Z,5.40
2018-03-17T19:18:13.581Z,5.40
2018-03-17T19:23:16.892Z,6.20
2018-03-17T19:28:19.504Z,5.30
2018-03-17T19:33:22.083Z,4.90
2018-03-17T19:38:24.651Z,4.50
2018-03-17T19:43:27.189Z,5.10
2018-03-17T19:48:29.772Z,5.50
2018-03-17T19:53:32.511Z,5.50
2018-03-17T19:58:35.699Z,5.53
2018-03-17T20:03:38.269Z,5.10
2018-03-17T20:08:41.361Z,5.20
2018-03-17T20:13:43.936Z,4.77
2018-03-17T20:18:46.510Z,5.50
2018-03-17T20:23:49.673Z,5.40
2018-03-17T20:28:52.233Z,5.37
2018-03-17T20:33:54.769Z,5.10
2018-03-17T20:38:57.297Z,5.83
2018-03-17T20:44:00.232Z,5.70
2018-03-17T20:49:04.090Z,6.57
2018-03-17T20:54:06.779Z,5.90
2018-03-17T20:59:09.313Z,6.47
2018-03-17T21:04:11.844Z,6.13
2018-03-17T21:09:14.397Z,6.27
2018-03-17T21:14:17.015Z,6.40
2018-03-17T21:19:19.592Z,7.13
2018-03-17T21:24:23.553Z,6.77
2018-03-17T21:29:26.608Z,6.40
2018-03-17T21:34:29.115Z,6.40
2018-03-17T21:39:31.670Z,6.60
2018-03-17T21:44:34.358Z,6.47
2018-03-17T21:49:37.043Z,6.23
2018-03-17T21:54:41.290Z,7.43
2018-03-17T21:59:46.566Z,6.70
2018-03-17T22:04:49.213Z,7.23
2018-03-17T22:09:52.069Z,7.33
2018-03-17T22:14:55.158Z,7.33
2018-03-17T22:19:57.861Z,6.73
2018-03-17T22:25:01.040Z,6.83
2018-03-17T22:30:03.620Z,7.40
2018-03-17T22:35:06.748Z,7.30
2018-03-17T22:40:09.350Z,7.93
2018-03-17T22:45:12.112Z,7.27
2018-03-17T22:50:14.845Z,6.50
2018-03-17T22:55:18.248Z,7.93
2018-03-17T23:00:21.589Z,7.70
2018-03-17T23:05:24.159Z,7.27
2018-03-17T23:10:27.302Z,7.70
2018-03-17T23:15:30.633Z,7.83
2018-03-17T23:20:33.214Z,6.97
2018-03-17T23:25:35.955Z,7.90
2018-03-17T23:30:38.528Z,8.03
2018-03-17T23:35:41.034Z,7.23
2018-03-17T23:40:43.647Z,8.10
2018-03-17T23:45:46.428Z,8.03
2018-03-17T23:50:48.933Z,8.20
2018-03-17T23:55:52.060Z,8.00
